Time;durP1;ratioP1;P1;durP2;ratioP2;P2;SDS_P1;SDS_P2;PMS_P1;PMS_P2;Temp;Humidity;BMP_temperature;BMP_pressure;BME280_temperature;BME280_humidity;BME280_pressure;Samples;Min_cycle;Max_cycle;Signal;HPM_P1;HPM_P2
2022/06/22 00:01:22;;;;;;;19.65;4.75;;;;;;;23.30;49.85;95554.22;10353697;28;96853;-74
2022/06/22 00:06:33;;;;;;;17.63;4.75;;;;;;;23.25;50.16;95532.78;10357439;28;98809;-75
2022/06/22 00:11:36;;;;;;;16.33;4.80;;;;;;;23.38;50.87;95542.34;10360527;28;98506;-74
2022/06/22 00:16:40;;;;;;;20.87;5.30;;;;;;;23.37;50.15;95552.19;10354218;28;97059;-73
2022/06/22 00:21:44;;;;;;;20.00;5.60;;;;;;;23.48;48.99;95552.31;10367457;28;97011;-74
2022/06/22 00:26:49;;;;;;;14.50;4.90;;;;;;;23.60;49.35;95585.00;10366709;28;97055;-70
2022/06/22 00:32:13;;;;;;;15.43;5.10;;;;;;;23.59;50.47;95625.28;10366870;28;98783;-74
2022/06/22 00:37:21;;;;;;;20.15;5.47;;;;;;;23.37;52.79;95602.03;10356670;28;96924;-74
2022/06/22 00:42:31;;;;;;;15.70;5.07;;;;;;;23.25;53.68;95594.09;10359361;28;99792;-74
2022/06/22 00:47:37;;;;;;;17.25;4.82;;;;;;;23.10;55.34;95588.53;10362826;28;98340;-74
2022/06/22 00:52:46;;;;;;;17.30;5.35;;;;;;;22.93;56.38;95600.00;10362621;28;99185;-73
2022/06/22 00:57:54;;;;;;;16.50;5.78;;;;;;;22.70;58.00;95608.94;10369819;28;97011;-74
2022/06/22 01:03:05;;;;;;;17.10;6.30;;;;;;;22.22;59.30;95605.63;10353302;28;96797;-75
2022/06/22 01:08:16;;;;;;;19.05;6.55;;;;;;;21.88;59.99;95599.34;10348416;28;96781;-75
2022/06/22 01:13:26;;;;;;;17.27;6.22;;;;;;;21.86;60.96;95601.44;10363721;28;96866;-75
2022/06/22 01:18:32;;;;;;;15.32;5.38;;;;;;;21.92;60.96;95605.00;10364310;28;96833;-74
2022/06/22 01:24:07;;;;;;;18.90;6.13;;;;;;;21.88;61.67;95610.81;10371844;28;98689;-72
2022/06/22 01:29:16;;;;;;;15.85;5.90;;;;;;;21.82;61.81;95601.09;10365387;28;96815;-73
2022/06/22 01:34:20;;;;;;;15.93;6.22;;;;;;;21.60;62.35;95606.19;10371047;28;96990;-74
2022/06/22 01:39:22;;;;;;;19.77;6.00;;;;;;;21.39;62.85;95599.59;10362264;28;97721;-70
2022/06/22 01:44:34;;;;;;;16.13;6.03;;;;;;;21.38;62.91;95592.69;10362405;28;98708;-74
2022/06/22 01:49:42;;;;;;;17.85;6.00;;;;;;;21.49;63.14;95596.38;10363741;28;101646;-73
2022/06/22 01:54:53;;;;;;;14.25;5.88;;;;;;;21.62;63.23;95598.84;10365196;28;99545;-73
2022/06/22 02:00:00;;;;;;;20.40;6.00;;;;;;;21.68;63.43;95591.78;10364733;28;98989;-73
2022/06/22 02:05:12;;;;;;;19.30;5.55;;;;;;;21.71;63.40;95583.34;10363544;28;98761;-73
2022/06/22 02:10:36;;;;;;;21.40;6.40;;;;;;;21.76;63.95;95585.28;10366300;28;98448;-73
2022/06/22 02:15:51;;;;;;;21.83;7.53;;;;;;;21.78;63.65;95599.13;10356810;28;99549;-74
2022/06/22 02:20:54;;;;;;;17.60;6.10;;;;;;;21.68;63.87;95586.44;10362132;28;98627;-73
2022/06/22 02:26:12;;;;;;;15.32;5.65;;;;;;;21.55;63.64;95566.19;10369107;28;98787;-74
2022/06/22 02:31:19;;;;;;;14.63;5.25;;;;;;;21.49;63.76;95564.50;10366062;28;99310;-74
2022/06/22 02:36:24;;;;;;;14.45;5.85;;;;;;;21.39;63.70;95546.47;10360423;28;97250;-74
2022/06/22 02:46:50;;;;;;;17.52;5.75;;;;;;;21.22;64.45;95542.91;10362234;28;98765;-73
2022/06/22 02:51:54;;;;;;;15.32;5.53;;;;;;;21.12;65.00;95544.28;10362408;28;97934;-74
2022/06/22 02:57:06;;;;;;;20.80;6.80;;;;;;;21.02;65.26;95560.00;10367114;28;98031;-73
2022/06/22 03:02:11;;;;;;;15.20;6.90;;;;;;;21.00;65.59;95556.75;10366446;28;97793;-73
2022/06/22 03:07:14;;;;;;;18.45;6.32;;;;;;;21.17;65.63;95572.81;10363120;28;99205;-73
2022/06/22 03:12:18;;;;;;;17.17;6.00;;;;;;;21.25;65.12;95575.13;10362792;28;99486;-70
2022/06/22 03:17:27;;;;;;;18.87;6.13;;;;;;;21.32;65.80;95580.31;10359104;28;98290;-74
2022/06/22 03:22:34;;;;;;;17.75;6.40;;;;;;;21.29;65.46;95586.09;10360951;28;98387;-74
2022/06/22 03:27:41;;;;;;;19.58;6.63;;;;;;;21.29;65.48;95572.81;10359554;28;98836;-73
2022/06/22 03:32:51;;;;;;;15.63;5.38;;;;;;;21.27;65.68;95566.91;10361714;28;97140;-74
2022/06/22 03:38:00;;;;;;;13.48;6.10;;;;;;;21.06;66.47;95566.44;10360629;28;99112;-74
2022/06/22 03:43:08;;;;;;;15.63;7.22;;;;;;;20.88;66.98;95555.94;10358434;28;98317;-73
2022/06/22 03:48:19;;;;;;;17.45;5.82;;;;;;;20.82;68.16;95543.56;10362145;28;98760;-74
2022/06/22 03:53:33;;;;;;;16.38;6.93;;;;;;;20.73;68.23;95548.38;10363865;28;97704;-74
2022/06/22 03:58:35;;;;;;;23.17;6.67;;;;;;;20.73;69.16;95546.53;10361422;28;98775;-73
2022/06/22 04:03:41;;;;;;;18.80;7.05;;;;;;;20.65;69.99;95543.41;10360818;28;96934;-70
2022/06/22 04:08:43;;;;;;;14.25;7.03;;;;;;;20.62;70.69;95539.38;10361127;28;97934;-72
2022/06/22 04:13:56;;;;;;;16.77;6.95;;;;;;;20.72;69.90;95550.25;10358884;28;98603;-74
2022/06/22 04:19:02;;;;;;;14.10;6.93;;;;;;;20.72;70.00;95560.84;10361635;28;97180;-74
2022/06/22 04:24:13;;;;;;;15.95;6.45;;;;;;;20.65;69.88;95588.50;10356142;28;97137;-74
2022/06/22 04:29:20;;;;;;;17.70;7.65;;;;;;;20.41;71.38;95587.63;10370924;28;97324;-73
2022/06/22 04:34:35;;;;;;;17.38;7.35;;;;;;;20.34;72.40;95574.47;10360334;28;100538;-73
2022/06/22 04:39:43;;;;;;;13.85;6.75;;;;;;;20.29;71.59;95577.81;10363852;28;97014;-73
2022/06/22 04:44:50;;;;;;;15.40;7.22;;;;;;;20.30;72.16;95586.56;10370371;28;97240;-73
2022/06/22 04:49:58;;;;;;;19.95;7.00;;;;;;;20.26;72.20;95583.56;10357783;28;98794;-72
2022/06/22 04:55:04;;;;;;;17.65;7.43;;;;;;;20.24;72.57;95601.53;10380882;28;96921;-73
2022/06/22 05:00:14;;;;;;;12.98;6.82;;;;;;;20.28;72.62;95618.59;10376903;28;97478;-73
2022/06/22 05:05:22;;;;;;;15.27;6.97;;;;;;;20.15;72.97;95647.97;10368355;28;102897;-73
2022/06/22 05:10:35;;;;;;;15.27;7.82;;;;;;;20.16;73.54;95652.22;10366778;28;99384;-73
2022/06/22 05:15:41;;;;;;;15.43;7.60;;;;;;;20.26;73.50;95663.13;10368926;28;97737;-71
2022/06/22 05:20:52;;;;;;;17.80;8.07;;;;;;;20.32;73.99;95682.63;10367204;28;97828;-73
2022/06/22 05:25:58;;;;;;;16.25;7.95;;;;;;;20.31;74.62;95681.81;10359919;28;98037;-73
2022/06/22 05:31:05;;;;;;;16.15;8.10;;;;;;;20.18;74.51;95690.75;10363893;28;98635;-74
2022/06/22 05:36:13;;;;;;;19.67;9.05;;;;;;;20.00;75.49;95701.34;10370383;28;98350;-72
2022/06/22 05:41:21;;;;;;;17.60;8.50;;;;;;;19.84;76.35;95708.03;10366758;28;97710;-72
2022/06/22 05:46:24;;;;;;;22.35;9.13;;;;;;;19.77;76.79;95710.72;10366449;28;99199;-72
2022/06/22 05:51:37;;;;;;;16.15;9.73;;;;;;;19.74;77.65;95713.00;10371431;28;97987;-71
2022/06/22 05:56:44;;;;;;;20.25;8.57;;;;;;;19.84;77.31;95718.66;10369070;28;97094;-73
2022/06/22 06:01:56;;;;;;;18.17;9.18;;;;;;;19.92;77.46;95726.31;10377355;28;98618;-72
2022/06/22 06:07:06;;;;;;;16.65;8.88;;;;;;;19.86;77.44;95739.63;10363272;28;98842;-72
2022/06/22 06:12:15;;;;;;;16.13;8.88;;;;;;;19.76;77.59;95726.84;10361142;28;98588;-72
2022/06/22 06:17:25;;;;;;;16.48;9.05;;;;;;;19.67;78.23;95722.84;10367014;28;100689;-73
2022/06/22 06:22:34;;;;;;;18.40;9.48;;;;;;;19.60;79.24;95699.06;10364701;28;98585;-72
2022/06/22 06:27:41;;;;;;;15.27;9.10;;;;;;;19.58;78.01;95704.56;10365798;28;98429;-72
2022/06/22 06:32:54;;;;;;;15.90;9.55;;;;;;;19.71;77.95;95713.44;10359748;28;97595;-72
2022/06/22 06:38:10;;;;;;;18.02;8.95;;;;;;;19.74;78.57;95718.28;10358518;28;98206;-72
2022/06/22 06:43:25;;;;;;;23.38;8.98;;;;;;;19.96;78.93;95693.03;10349673;28;98584;-72
2022/06/22 06:48:30;;;;;;;19.17;6.97;;;;;;;20.12;77.56;95672.25;10361770;28;99676;-72
2022/06/22 06:53:41;;;;;;;15.48;6.13;;;;;;;20.24;76.26;95659.88;10356333;28;96912;-72
2022/06/22 06:58:50;;;;;;;22.77;8.80;;;;;;;20.29;75.90;95646.75;10357402;28;97173;-72
2022/06/22 07:03:58;;;;;;;18.83;7.97;;;;;;;20.40;75.56;95637.22;10366220;28;98029;-72
2022/06/22 07:09:11;;;;;;;17.25;7.13;;;;;;;20.43;75.21;95657.22;10367234;28;97675;-72
2022/06/22 07:14:27;;;;;;;23.63;7.50;;;;;;;20.44;74.36;95659.63;10367172;28;96814;-72
2022/06/22 07:19:36;;;;;;;19.05;7.57;;;;;;;20.42;75.12;95659.03;10362363;28;96793;-72
2022/06/22 07:24:45;;;;;;;16.25;7.50;;;;;;;20.40;74.70;95649.69;10353056;28;97011;-77
2022/06/22 07:29:56;;;;;;;22.67;8.25;;;;;;;20.49;74.66;95637.72;10365728;28;97198;-77
2022/06/22 07:35:06;;;;;;;15.13;7.60;;;;;;;20.56;75.00;95643.75;10362001;28;96891;-76
2022/06/22 07:40:15;;;;;;;18.48;7.35;;;;;;;20.57;75.00;95638.22;10340529;28;96883;-76
2022/06/22 07:45:20;;;;;;;22.05;6.72;;;;;;;20.63;74.50;95633.06;10339855;28;99918;-76
2022/06/22 07:50:28;;;;;;;20.17;7.63;;;;;;;20.73;75.28;95636.78;10341016;28;97289;-76
2022/06/22 07:55:39;;;;;;;20.05;8.02;;;;;;;20.94;74.90;95637.31;10357429;28;96932;-76
2022/06/22 08:00:44;;;;;;;19.48;7.53;;;;;;;21.07;74.59;95634.47;10338543;28;97153;-76
2022/06/22 08:05:51;;;;;;;16.67;6.57;;;;;;;21.24;73.59;95653.22;10354680;28;97013;-76
2022/06/22 08:11:01;;;;;;;20.38;7.18;;;;;;;21.11;73.62;95662.19;10346570;28;97228;-76
2022/06/22 08:16:08;;;;;;;22.92;7.30;;;;;;;21.18;72.90;95667.38;10354506;28;97288;-77
2022/06/22 08:21:16;;;;;;;17.48;5.82;;;;;;;21.17;72.52;95676.38;10353934;28;96749;-76
2022/06/22 08:26:24;;;;;;;17.02;6.97;;;;;;;21.29;71.18;95671.09;10351275;28;98113;-76
2022/06/22 08:31:31;;;;;;;15.20;6.88;;;;;;;21.54;71.25;95670.09;10345970;28;97046;-76
2022/06/22 08:36:39;;;;;;;19.23;5.82;;;;;;;21.78;69.82;95660.28;10354553;28;97168;-76
2022/06/22 08:41:53;;;;;;;15.98;6.10;;;;;;;22.03;68.65;95660.03;10356124;28;96983;-76
2022/06/22 08:47:24;;;;;;;17.50;6.07;;;;;;;22.27;67.88;95660.00;10347192;28;96775;-75
2022/06/22 08:52:41;;;;;;;19.90;6.20;;;;;;;22.53;67.84;95667.44;10356098;28;97296;-74
2022/06/22 08:58:26;;;;;;;13.55;5.00;;;;;;;22.55;67.11;95660.03;10352410;28;97657;-75
2022/06/22 09:04:04;;;;;;;16.50;5.65;;;;;;;22.44;67.94;95651.03;10355916;28;97783;-75
2022/06/22 09:09:33;;;;;;;12.90;5.35;;;;;;;22.35;68.29;95651.63;10352593;28;97048;-74
2022/06/22 09:14:57;;;;;;;20.80;6.63;;;;;;;22.41;68.12;95645.38;10355299;28;96871;-75
2022/06/22 09:20:16;;;;;;;17.70;5.70;;;;;;;22.49;67.40;95642.38;10343951;28;98021;-74
2022/06/22 09:25:27;;;;;;;19.52;6.00;;;;;;;22.39;68.16;95642.13;10358600;28;96831;-75
2022/06/22 09:30:58;;;;;;;22.02;6.65;;;;;;;22.58;67.83;95638.25;10355497;28;98926;-74
2022/06/22 09:36:35;;;;;;;15.73;5.28;;;;;;;22.94;66.15;95638.06;10351532;28;97236;-75
2022/06/22 09:41:52;;;;;;;15.23;5.13;;;;;;;23.05;64.01;95639.06;10361235;28;99415;-74
2022/06/22 09:47:14;;;;;;;15.95;5.35;;;;;;;23.23;64.25;95646.81;10352142;28;96774;-74
2022/06/22 09:52:37;;;;;;;20.63;6.43;;;;;;;23.24;62.58;95624.47;10357584;28;97490;-74
2022/06/22 09:58:17;;;;;;;13.70;4.50;;;;;;;23.31;62.84;95627.00;10361134;28;96856;-74
2022/06/22 10:03:44;;;;;;;14.23;4.60;;;;;;;23.43;61.94;95632.22;10368436;28;97198;-74
2022/06/22 10:09:10;;;;;;;15.48;4.68;;;;;;;23.64;61.14;95620.81;10364951;28;98525;-73
2022/06/22 10:14:35;;;;;;;11.23;4.40;;;;;;;24.02;59.29;95615.69;10354587;28;96709;-74
2022/06/22 10:19:53;;;;;;;13.98;4.30;;;;;;;23.86;59.46;95622.69;10345571;28;96715;-73
2022/06/22 10:25:24;;;;;;;13.60;4.43;;;;;;;23.79;59.63;95616.75;10357234;28;96773;-74
2022/06/22 10:30:35;;;;;;;16.55;4.53;;;;;;;23.75;61.22;95617.22;10360444;28;97100;-74
2022/06/22 10:36:07;;;;;;;18.48;4.70;;;;;;;23.64;59.32;95615.47;10357209;28;97363;-73
2022/06/22 10:46:46;;;;;;;16.63;4.78;;;;;;;23.96;59.52;95601.50;10261659;28;96961;-74
2022/06/22 10:52:17;;;;;;;15.85;4.80;;;;;;;24.09;60.87;95590.47;10268605;28;98834;-74
2022/06/22 10:57:48;;;;;;;12.77;4.28;;;;;;;24.23;58.42;95587.44;10273567;28;97174;-74
2022/06/22 11:03:26;;;;;;;12.48;4.72;;;;;;;24.28;58.06;95580.28;10272403;28;96910;-74
2022/06/22 11:09:04;;;;;;;14.93;4.18;;;;;;;24.37;57.71;95575.31;10267855;28;97091;-74
2022/06/22 11:14:47;;;;;;;19.85;4.85;;;;;;;24.10;58.06;95565.41;10185173;28;98499;-74
2022/06/22 11:20:24;;;;;;;16.40;5.10;;;;;;;24.08;58.33;95556.03;10297222;28;96947;-72
2022/06/22 11:31:34;;;;;;;17.73;4.88;;;;;;;24.59;58.03;95540.56;10311932;28;97013;-74
2022/06/22 11:36:47;;;;;;;15.85;4.85;;;;;;;24.73;57.43;95538.28;10301899;28;96929;-73
2022/06/22 11:42:20;;;;;;;21.02;4.70;;;;;;;24.87;56.85;95526.13;10304039;28;98782;-74
2022/06/22 11:47:34;;;;;;;16.10;4.67;;;;;;;25.40;56.01;95522.72;10301745;28;97351;-74
2022/06/22 11:52:56;;;;;;;14.60;4.90;;;;;;;25.82;55.14;95513.84;10347634;28;97106;-73
2022/06/22 11:58:42;;;;;;;18.83;5.10;;;;;;;26.17;54.41;95498.94;10365902;28;98008;-73
2022/06/22 12:04:26;;;;;;;15.55;4.82;;;;;;;26.15;53.84;95493.88;10354896;28;96763;-74
2022/06/22 12:09:42;;;;;;;17.33;4.77;;;;;;;26.51;54.06;95485.13;10348294;28;97060;-74
2022/06/22 12:15:09;;;;;;;17.98;5.10;;;;;;;26.77;52.14;95458.31;10356981;28;97016;-74
2022/06/22 12:20:26;;;;;;;17.45;5.00;;;;;;;26.83;50.80;95457.22;10347608;28;96741;-74
2022/06/22 12:25:49;;;;;;;17.45;4.90;;;;;;;26.95;50.15;95449.75;10347080;28;97211;-74
2022/06/22 12:31:02;;;;;;;18.80;4.93;;;;;;;27.13;50.94;95445.69;10353431;28;96926;-74
2022/06/22 12:36:09;;;;;;;20.55;5.25;;;;;;;27.16;50.92;95433.63;10354027;28;99929;-74
2022/06/22 12:41:23;;;;;;;18.35;5.38;;;;;;;27.07;51.96;95431.47;10349699;28;97178;-74
2022/06/22 12:46:48;;;;;;;22.08;5.70;;;;;;;27.03;50.99;95433.09;10347305;28;96918;-74
2022/06/22 12:52:01;;;;;;;14.32;4.78;;;;;;;27.36;49.84;95438.13;10350667;28;96836;-72
2022/06/22 12:57:08;;;;;;;19.83;5.65;;;;;;;27.43;48.65;95450.16;10355881;28;96869;-74
2022/06/22 13:02:16;;;;;;;17.38;5.50;;;;;;;27.56;49.45;95458.69;10347485;28;96742;-74
2022/06/22 13:07:20;;;;;;;16.48;4.97;;;;;;;28.08;50.16;95452.00;10346231;28;96935;-73
2022/06/22 13:12:32;;;;;;;15.43;4.55;;;;;;;28.72;47.04;95425.22;10354961;28;96969;-74
2022/06/22 13:17:44;;;;;;;18.98;5.18;;;;;;;28.97;50.47;95437.66;10363053;28;96739;-74
2022/06/22 13:22:55;;;;;;;14.80;4.55;;;;;;;28.92;47.24;95418.91;10366790;28;97476;-74
2022/06/22 13:28:04;;;;;;;16.70;5.00;;;;;;;28.93;50.29;95425.84;10370061;28;96803;-73
2022/06/22 13:33:14;;;;;;;12.75;4.18;;;;;;;28.84;48.17;95432.91;10368060;28;97335;-74
2022/06/22 13:38:30;;;;;;;17.35;4.82;;;;;;;28.54;49.00;95430.22;10355255;28;97017;-74
2022/06/22 13:43:50;;;;;;;19.10;4.85;;;;;;;28.64;47.90;95380.97;10350920;28;96835;-74
2022/06/22 13:48:59;;;;;;;16.45;4.95;;;;;;;28.79;47.32;95404.19;10358415;28;96772;-74
2022/06/22 13:54:43;;;;;;;17.40;4.65;;;;;;;29.06;46.01;95392.91;10357937;28;97390;-74
2022/06/22 13:59:55;;;;;;;19.25;5.40;;;;;;;29.18;45.96;95414.03;10361840;28;96948;-74
2022/06/22 14:05:06;;;;;;;14.20;4.50;;;;;;;29.06;47.64;95419.03;10350255;28;96751;-74
2022/06/22 14:10:21;;;;;;;17.80;5.38;;;;;;;29.35;45.91;95416.28;10364505;28;97075;-74
2022/06/22 14:15:49;;;;;;;18.63;5.32;;;;;;;29.74;45.04;95385.66;10359709;28;97758;-74
2022/06/22 14:21:11;;;;;;;18.27;4.90;;;;;;;29.99;45.33;95386.38;10359875;28;96816;-74
2022/06/22 14:26:49;;;;;;;15.60;5.03;;;;;;;30.04;45.39;95397.06;10353291;28;96790;-74
2022/06/22 14:32:01;;;;;;;15.32;4.35;;;;;;;30.29;45.07;95417.47;10350924;28;97215;-72
2022/06/22 14:37:17;;;;;;;15.73;4.88;;;;;;;30.19;43.37;95414.94;10360880;28;96755;-74
2022/06/22 14:42:24;;;;;;;19.25;4.40;;;;;;;29.49;47.01;95427.13;10360617;28;97128;-74
2022/06/22 14:47:36;;;;;;;17.88;5.50;;;;;;;28.27;49.96;95435.22;10356467;28;97132;-75
2022/06/22 14:52:48;;;;;;;19.83;5.38;;;;;;;29.95;47.18;95402.31;10364244;28;97088;-74
2022/06/22 14:58:01;;;;;;;15.15;4.65;;;;;;;32.89;40.87;95411.63;10355806;28;96754;-74
2022/06/22 15:03:27;;;;;;;13.25;4.40;;;;;;;34.73;38.10;95419.03;10359578;28;96796;-75
2022/06/22 15:08:41;;;;;;;15.82;4.32;;;;;;;36.67;35.36;95420.31;10354135;28;96799;-76
2022/06/22 15:13:50;;;;;;;13.20;4.47;;;;;;;36.11;34.57;95414.41;10347644;28;97064;-75
2022/06/22 15:19:01;;;;;;;13.93;4.40;;;;;;;33.63;37.52;95416.41;10356030;28;96991;-75
2022/06/22 15:24:13;;;;;;;13.27;4.47;;;;;;;31.58;41.12;95403.28;10358286;28;97218;-75
2022/06/22 15:29:21;;;;;;;13.88;4.43;;;;;;;30.87;43.85;95415.47;10353283;28;96706;-75
2022/06/22 15:34:33;;;;;;;14.45;4.38;;;;;;;30.92;42.83;95412.66;10352699;28;101738;-74
2022/06/22 15:39:41;;;;;;;15.27;4.28;;;;;;;30.76;44.59;95410.25;10368917;28;97461;-74
2022/06/22 15:44:50;;;;;;;15.90;4.50;;;;;;;30.57;44.24;95391.41;10369028;28;97066;-74
2022/06/22 15:50:16;;;;;;;20.27;5.03;;;;;;;29.80;45.35;95405.22;10369292;28;96993;-74
2022/06/22 15:55:30;;;;;;;17.77;5.18;;;;;;;28.59;47.60;95411.38;10368011;28;97063;-76
2022/06/22 16:00:38;;;;;;;20.20;5.07;;;;;;;28.20;47.95;95409.50;10371567;28;96741;-72
2022/06/22 16:05:48;;;;;;;17.80;4.80;;;;;;;27.89;49.23;95424.19;10374230;28;97354;-75
2022/06/22 16:16:27;;;;;;;9.95;3.38;;;;;;;26.37;49.26;95472.25;10362013;28;96796;-76
2022/06/22 16:21:35;;;;;;;7.55;2.72;;;;;;;25.75;47.99;95470.47;10355423;28;96885;-75
2022/06/22 16:26:45;;;;;;;11.20;2.88;;;;;;;25.43;48.38;95471.41;10356863;28;100982;-74
2022/06/22 16:32:03;;;;;;;10.70;2.90;;;;;;;25.39;48.24;95483.66;10345511;28;96961;-73
2022/06/22 16:37:27;;;;;;;10.88;3.38;;;;;;;25.33;48.62;95479.38;10350398;28;99890;-74
2022/06/22 16:42:55;;;;;;;10.70;3.55;;;;;;;25.44;48.77;95487.19;10357039;28;96824;-74
2022/06/22 16:48:11;;;;;;;16.13;3.88;;;;;;;25.59;48.37;95489.16;10355015;28;96989;-74
2022/06/22 16:53:22;;;;;;;13.68;4.07;;;;;;;25.58;48.53;95482.19;10349898;28;96831;-73
2022/06/22 16:58:33;;;;;;;15.50;4.30;;;;;;;25.51;48.01;95481.63;10350059;28;98377;-71
2022/06/22 17:03:46;;;;;;;14.38;3.97;;;;;;;25.51;49.24;95492.31;10363077;28;99217;-72
2022/06/22 17:09:01;;;;;;;14.77;3.92;;;;;;;25.50;49.39;95509.41;10354639;28;98428;-71
2022/06/22 17:14:18;;;;;;;14.80;3.53;;;;;;;25.42;48.55;95523.25;10353516;28;97167;-71
2022/06/22 17:19:24;;;;;;;10.65;3.88;;;;;;;25.25;48.53;95537.63;10361678;28;97163;-70
2022/06/22 17:24:41;;;;;;;17.42;5.13;;;;;;;25.01;48.75;95515.00;10359738;28;97040;-72
2022/06/22 17:29:52;;;;;;;13.27;3.92;;;;;;;24.87;49.57;95507.41;10357411;28;96996;-71
2022/06/22 17:35:00;;;;;;;12.90;3.97;;;;;;;24.72;50.52;95517.16;10353175;28;100731;-71
2022/06/22 17:40:17;;;;;;;17.75;6.22;;;;;;;24.33;56.67;95568.84;10364242;28;96990;-75
2022/06/22 17:45:30;;;;;;;13.27;2.75;;;;;;;21.80;64.97;95575.81;10373493;28;97725;-74
2022/06/22 17:50:38;;;;;;;30.92;5.45;;;;;;;18.65;77.43;95594.06;10362795;28;97385;-68
2022/06/22 17:55:46;;;;;;;13.52;5.70;;;;;;;17.87;83.21;95610.94;10366884;28;98177;-67
2022/06/22 18:00:53;;;;;;;21.33;6.70;;;;;;;17.71;85.16;95598.97;10355410;28;97128;-70
2022/06/22 18:06:06;;;;;;;21.42;7.78;;;;;;;17.83;87.47;95628.22;10370891;28;97299;-69
2022/06/22 18:11:20;;;;;;;14.38;4.70;;;;;;;17.40;88.27;95626.88;10369026;28;97088;-69
2022/06/22 18:16:29;;;;;;;7.80;3.40;;;;;;;16.72;89.81;95604.13;10375999;28;96980;-70
2022/06/22 18:21:35;;;;;;;6.97;2.20;;;;;;;15.93;90.91;95600.31;10366907;28;96766;-69
2022/06/22 18:26:45;;;;;;;5.30;1.67;;;;;;;15.09;91.59;95567.81;10369963;28;98225;-70
2022/06/22 18:31:55;;;;;;;6.20;1.88;;;;;;;14.94;92.87;95598.69;10358364;28;96925;-69
2022/06/22 18:37:01;;;;;;;3.40;1.02;;;;;;;14.66;93.83;95615.25;10350816;28;97807;-69
2022/06/22 18:42:17;;;;;;;4.63;1.73;;;;;;;14.87;93.38;95618.84;10374638;28;96934;-69
2022/06/22 18:47:30;;;;;;;18.98;6.55;;;;;;;15.57;93.60;95634.72;10372601;28;98108;-69
2022/06/22 18:52:40;;;;;;;11.10;4.28;;;;;;;15.94;93.29;95630.06;10373938;28;97977;-69
2022/06/22 18:57:44;;;;;;;14.00;6.40;;;;;;;16.29;93.61;95680.09;10366728;28;96910;-69
2022/06/22 19:02:50;;;;;;;14.65;6.15;;;;;;;16.56;93.71;95671.25;10367440;28;100207;-69
2022/06/22 19:08:00;;;;;;;14.02;5.30;;;;;;;16.63;94.11;95693.16;10359717;28;98468;-68
2022/06/22 19:13:07;;;;;;;11.90;4.72;;;;;;;16.60;94.40;95771.88;10357793;28;99070;-69
2022/06/22 19:18:25;;;;;;;14.73;5.80;;;;;;;16.38;95.67;95848.44;10347517;28;98506;-69
2022/06/22 19:23:45;;;;;;;12.25;5.65;;;;;;;16.33;95.75;95871.91;10358767;28;100437;-69
2022/06/22 19:28:57;;;;;;;12.10;5.70;;;;;;;16.24;96.31;95863.34;10361051;28;96986;-70
2022/06/22 19:34:09;;;;;;;10.52;4.05;;;;;;;16.08;96.29;95853.06;10362304;28;96921;-68
2022/06/22 19:39:21;;;;;;;11.55;4.00;;;;;;;15.93;97.18;95823.38;10353071;28;96857;-69
2022/06/22 19:44:40;;;;;;;23.25;10.55;;;;;;;16.00;97.29;95797.91;10354807;28;98676;-68
2022/06/22 19:50:00;;;;;;;27.73;15.60;;;;;;;16.13;96.89;95776.91;10363125;28;97022;-70
2022/06/22 19:55:12;;;;;;;11.93;4.90;;;;;;;16.10;97.24;95760.66;10352217;28;98718;-68
2022/06/22 20:00:15;;;;;;;15.10;6.25;;;;;;;16.15;97.41;95753.81;10345322;28;97081;-69
2022/06/22 20:05:24;;;;;;;13.93;5.30;;;;;;;16.18;97.52;95766.59;10359095;28;97310;-68
2022/06/22 20:10:36;;;;;;;11.45;5.80;;;;;;;16.22;97.46;95759.94;10358729;28;100680;-67
2022/06/22 20:15:44;;;;;;;11.90;5.18;;;;;;;16.23;97.48;95780.00;10361640;28;97256;-67
2022/06/22 20:21:06;;;;;;;12.15;5.68;;;;;;;16.30;97.62;95797.69;10354903;28;100368;-69
2022/06/22 20:26:21;;;;;;;15.63;6.30;;;;;;;16.31;97.60;95825.66;10350167;28;96935;-67
2022/06/22 20:31:31;;;;;;;14.77;6.17;;;;;;;16.36;97.87;95828.53;10347310;28;98421;-69
2022/06/22 20:36:48;;;;;;;16.00;5.68;;;;;;;16.28;97.68;95858.50;10349668;28;97404;-69
2022/06/22 20:42:01;;;;;;;13.70;5.38;;;;;;;16.19;98.14;95838.56;10348763;28;98840;-70
2022/06/22 20:47:11;;;;;;;14.00;5.75;;;;;;;16.04;98.23;95841.31;10357243;28;97043;-70
2022/06/22 20:52:19;;;;;;;13.70;5.72;;;;;;;16.11;98.52;95868.50;10357589;28;99098;-70
2022/06/22 20:57:30;;;;;;;14.40;6.20;;;;;;;16.09;98.32;95860.00;10355641;28;97490;-70
2022/06/22 21:02:40;;;;;;;12.85;6.35;;;;;;;16.14;98.38;95873.41;10349954;28;98333;-70
2022/06/22 21:07:47;;;;;;;13.75;6.30;;;;;;;16.12;99.30;95883.31;10358614;28;97677;-69
2022/06/22 21:12:58;;;;;;;12.43;5.65;;;;;;;16.10;99.27;95882.69;10363526;28;97241;-69
2022/06/22 21:18:36;;;;;;;14.95;6.43;;;;;;;16.15;99.67;95874.22;10352729;28;97381;-69
2022/06/22 21:24:01;;;;;;;16.23;5.85;;;;;;;16.07;99.35;95877.81;10353128;28;97114;-69
2022/06/22 21:29:33;;;;;;;12.75;4.78;;;;;;;15.97;99.22;95867.59;10348825;28;97027;-70
2022/06/22 21:34:43;;;;;;;13.02;4.30;;;;;;;15.92;99.16;95874.44;10356204;28;97343;-70
2022/06/22 21:40:05;;;;;;;11.80;4.82;;;;;;;15.97;99.54;95872.88;10354478;28;98846;-69
2022/06/22 21:45:25;;;;;;;15.40;5.00;;;;;;;15.97;100.00;95882.59;10358746;28;98747;-69
2022/06/22 21:50:45;;;;;;;14.65;4.57;;;;;;;15.88;99.87;95874.81;10344985;28;99154;-70
2022/06/22 21:56:02;;;;;;;10.68;5.32;;;;;;;15.93;100.00;95876.06;10361119;28;97068;-69
2022/06/22 22:01:14;;;;;;;11.60;5.35;;;;;;;16.05;100.00;95895.59;10361807;28;97660;-69
2022/06/22 22:06:21;;;;;;;12.52;4.85;;;;;;;16.18;99.97;95902.81;10356826;28;98043;-70
2022/06/22 22:11:29;;;;;;;13.68;4.57;;;;;;;16.10;99.91;95903.75;10358478;28;100608;-70
2022/06/22 22:16:38;;;;;;;12.07;4.40;;;;;;;16.08;100.00;95891.78;10359757;28;99155;-70
2022/06/22 22:21:45;;;;;;;12.73;5.45;;;;;;;16.20;100.00;95908.72;10362700;28;97952;-70
2022/06/22 22:26:53;;;;;;;14.02;4.93;;;;;;;16.36;100.00;95913.72;10356802;28;98402;-70
2022/06/22 22:31:56;;;;;;;11.00;4.43;;;;;;;16.33;99.97;95902.72;10355293;28;96921;-70
2022/06/22 22:37:01;;;;;;;9.65;4.35;;;;;;;16.34;100.00;95899.09;10348621;28;96887;-69
2022/06/22 22:42:09;;;;;;;10.77;4.90;;;;;;;16.45;100.00;95901.19;10360658;28;97197;-71
2022/06/22 22:47:22;;;;;;;9.77;5.15;;;;;;;16.44;100.00;95892.47;10354028;28;98083;-71
2022/06/22 22:52:30;;;;;;;12.20;5.22;;;;;;;16.50;100.00;95890.91;10352063;28;98771;-70
2022/06/22 22:57:46;;;;;;;13.55;5.10;;;;;;;16.60;100.00;95901.88;10358738;28;96834;-70
2022/06/22 23:02:55;;;;;;;14.23;6.63;;;;;;;16.50;100.00;95898.81;10360833;28;97854;-70
2022/06/22 23:08:08;;;;;;;13.52;5.22;;;;;;;16.46;100.00;95905.44;10357862;28;98818;-69
2022/06/22 23:13:17;;;;;;;10.85;5.57;;;;;;;16.47;100.00;95904.47;10369444;28;96898;-70
2022/06/22 23:18:23;;;;;;;14.85;6.05;;;;;;;16.39;100.00;95912.50;10363567;28;97008;-70
2022/06/22 23:23:26;;;;;;;13.23;5.70;;;;;;;16.50;100.00;95906.72;10368640;28;97273;-69
2022/06/22 23:28:33;;;;;;;12.80;6.32;;;;;;;16.56;100.00;95911.19;10360898;28;98085;-69
2022/06/22 23:33:39;;;;;;;10.20;5.32;;;;;;;16.61;100.00;95906.16;10362586;28;100267;-69
2022/06/22 23:38:44;;;;;;;11.52;4.45;;;;;;;16.66;99.92;95899.47;10363797;28;97822;-69
2022/06/22 23:43:51;;;;;;;11.57;4.43;;;;;;;16.68;100.00;95894.84;10365170;28;99170;-69
2022/06/22 23:48:57;;;;;;;11.30;5.43;;;;;;;16.61;99.97;95885.06;10368431;28;96866;-69
2022/06/22 23:54:04;;;;;;;8.80;4.00;;;;;;;16.63;100.00;95880.41;10356760;28;96954;-69
2022/06/22 23:59:21;;;;;;;7.50;3.38;;;;;;;16.55;100.00;95870.00;10369240;28;98020;-69
